Time;durP1;ratioP1;P1;durP2;ratioP2;P2;SDS_P1;SDS_P2;PMS_P1;PMS_P2;Temp;Humidity;BMP_temperature;BMP_pressure;BME280_temperature;BME280_humidity;BME280_pressure;Samples;Min_cycle;Max_cycle;Signal;HPM_P1;HPM_P2
2023/01/17 00:00:18;;;;;;;;;;;;;;;17.82;66.64;97495.34;2354788;75;51544;-75
2023/01/17 00:03:20;;;;;;;;;;;;;;;17.79;66.73;97495.02;2355187;74;53696;-75
2023/01/17 00:09:55;;;;;;;;;;;;;;;17.77;66.91;97487.25;2359054;75;22255;-76
2023/01/17 00:12:57;;;;;;;;;;;;;;;17.80;66.88;97488.64;2357669;74;50770;-76
2023/01/17 00:15:59;;;;;;;;;;;;;;;17.79;66.93;97484.33;2379225;74;51511;-76
2023/01/17 01:34:05;;;;;;;;;;;;;;;17.72;67.50;97435.06;2374505;73;22361;-76
2023/01/17 01:37:07;;;;;;;;;;;;;;;17.69;67.56;97424.08;2417342;72;50281;-76
2023/01/17 01:40:09;;;;;;;;;;;;;;;17.68;67.63;97425.95;2390185;73;50099;-76
2023/01/17 01:43:12;;;;;;;;;;;;;;;17.69;67.58;97428.09;2424105;73;50227;-76
2023/01/17 01:46:15;;;;;;;;;;;;;;;17.69;67.60;97420.88;2424357;73;51638;-76
2023/01/17 01:49:23;;;;;;;;;;;;;;;17.70;67.55;97416.33;2420496;73;51498;-76
2023/01/17 01:52:25;;;;;;;;;;;;;;;17.70;67.53;97417.16;2424208;73;50764;-75
2023/01/17 01:55:28;;;;;;;;;;;;;;;17.70;67.47;97413.14;2424954;72;50241;-76
2023/01/17 01:58:31;;;;;;;;;;;;;;;17.69;67.49;97414.72;2427784;72;51540;-76
2023/01/17 02:01:32;;;;;;;;;;;;;;;17.70;67.42;97409.64;2426352;73;51556;-76
2023/01/17 02:04:34;;;;;;;;;;;;;;;17.68;67.49;97413.12;2376760;71;52614;-76
2023/01/17 02:07:40;;;;;;;;;;;;;;;17.66;67.53;97411.23;2380290;74;50712;-76
2023/01/17 02:10:43;;;;;;;;;;;;;;;17.68;67.48;97413.12;2381409;74;51635;-75
2023/01/17 02:13:44;;;;;;;;;;;;;;;17.72;67.32;97410.20;2381261;75;50745;-76
2023/01/17 02:16:53;;;;;;;;;;;;;;;17.78;67.14;97407.84;2356671;75;52715;-76
2023/01/17 02:20:03;;;;;;;;;;;;;;;17.84;66.91;97398.82;2380029;74;50265;-75
2023/01/17 02:23:24;;;;;;;;;;;;;;;17.84;66.86;97402.83;2381809;74;50799;-76
2023/01/17 02:26:42;;;;;;;;;;;;;;;17.83;66.91;97394.55;2240649;78;50720;-76
2023/01/17 02:30:02;;;;;;;;;;;;;;;17.79;67.06;97408.11;2193416;80;52516;-76
2023/01/17 02:33:05;;;;;;;;;;;;;;;17.76;67.20;97402.75;2217665;79;51566;-76
2023/01/17 02:36:09;;;;;;;;;;;;;;;17.75;67.24;97403.82;2232441;78;50376;-75
2023/01/17 02:39:21;;;;;;;;;;;;;;;17.75;67.35;97409.67;2217477;80;51650;-75
2023/01/17 02:42:25;;;;;;;;;;;;;;;17.75;67.32;97400.31;2192367;80;52626;-76
2023/01/17 02:45:27;;;;;;;;;;;;;;;17.75;67.35;97397.64;2217042;80;50459;-76
2023/01/17 02:48:30;;;;;;;;;;;;;;;17.71;67.43;97400.57;2191940;80;52219;-76
2023/01/17 02:51:35;;;;;;;;;;;;;;;17.73;67.39;97397.91;2217054;80;50315;-76
2023/01/17 02:54:46;;;;;;;;;;;;;;;17.73;67.40;97395.24;2217118;78;22419;-75
2023/01/17 02:57:55;;;;;;;;;;;;;;;17.75;67.35;97400.31;2309717;75;50253;-76
2023/01/17 03:01:08;;;;;;;;;;;;;;;17.73;67.39;97404.60;2364793;74;50333;-76
2023/01/17 03:04:14;;;;;;;;;;;;;;;17.72;67.42;97402.97;2377019;72;51537;-75
2023/01/17 03:07:17;;;;;;;;;;;;;;;17.72;67.38;97403.51;2383991;73;50678;-76
2023/01/17 03:10:19;;;;;;;;;;;;;;;17.72;67.31;97406.98;2379238;75;50787;-76
2023/01/17 03:13:20;;;;;;;;;;;;;;;17.73;67.29;97411.29;2378858;74;51502;-75
2023/01/17 03:16:23;;;;;;;;;;;;;;;17.69;67.45;97417.39;2354566;75;51551;-76
2023/01/17 03:19:24;;;;;;;;;;;;;;;17.67;67.49;97418.98;2356010;74;51735;-76
2023/01/17 03:22:26;;;;;;;;;;;;;;;17.66;67.57;97408.55;2378804;74;51563;-76
2023/01/17 03:25:27;;;;;;;;;;;;;;;17.70;67.47;97410.47;2379012;75;51498;-75
2023/01/17 03:28:29;;;;;;;;;;;;;;;17.77;67.27;97411.56;2378998;75;51434;-76
2023/01/17 03:31:30;;;;;;;;;;;;;;;17.79;67.13;97402.26;2328314;73;52354;-76
2023/01/17 03:34:32;;;;;;;;;;;;;;;17.80;67.05;97406.56;2393319;73;51513;-76
2023/01/17 03:37:34;;;;;;;;;;;;;;;17.79;67.09;97407.61;2379146;73;50160;-76
2023/01/17 03:40:35;;;;;;;;;;;;;;;17.78;67.13;97407.84;2379072;74;51584;-76
2023/01/17 03:43:37;;;;;;;;;;;;;;;17.74;67.25;97404.06;2327914;75;52426;-76
2023/01/17 03:46:39;;;;;;;;;;;;;;;17.72;67.34;97404.31;2356026;75;51712;-76
2023/01/17 03:49:41;;;;;;;;;;;;;;;17.71;67.40;97397.36;2379068;74;50738;-76
2023/01/17 03:52:42;;;;;;;;;;;;;;;17.73;67.42;97407.81;2354511;75;50050;-76
2023/01/17 03:55:47;;;;;;;;;;;;;;;17.73;67.43;97413.16;2356454;75;51238;-76
2023/01/17 03:58:50;;;;;;;;;;;;;;;17.70;67.51;97410.97;2378836;75;50321;-76
2023/01/17 04:01:51;;;;;;;;;;;;;;;17.70;67.49;97406.45;2354867;75;51639;-76
2023/01/17 04:04:53;;;;;;;;;;;;;;;17.72;67.44;97412.87;2393471;73;51347;-76
2023/01/17 04:07:55;;;;;;;;;;;;;;;17.70;67.48;97418.48;2328190;75;53233;-76
2023/01/17 04:10:56;;;;;;;;;;;;;;;17.72;67.46;97420.89;2328107;75;52446;-76
2023/01/17 04:13:58;;;;;;;;;;;;;;;17.73;67.42;97418.51;2378658;75;51510;-76
2023/01/17 04:17:00;;;;;;;;;;;;;;;17.71;67.43;97418.75;2378995;75;51525;-76
2023/01/17 04:20:01;;;;;;;;;;;;;;;17.72;67.51;97422.23;2354758;75;50762;-77
2023/01/17 04:23:03;;;;;;;;;;;;;;;17.72;67.54;97418.22;2327944;75;51214;-76
2023/01/17 04:26:05;;;;;;;;;;;;;;;17.70;67.54;97417.16;2378782;74;51490;-76
2023/01/17 04:29:06;;;;;;;;;;;;;;;17.68;67.56;97415.80;2378915;74;50058;-76
2023/01/17 04:32:08;;;;;;;;;;;;;;;17.65;67.70;97419.78;2354227;75;50093;-76
2023/01/17 04:35:10;;;;;;;;;;;;;;;17.67;67.66;97423.52;2377277;73;52411;-76
2023/01/17 04:38:12;;;;;;;;;;;;;;;17.73;67.50;97429.20;2378872;74;51584;-76
2023/01/17 04:41:13;;;;;;;;;;;;;;;17.78;67.29;97434.05;2354590;75;50681;-76
2023/01/17 04:44:15;;;;;;;;;;;;;;;17.79;67.21;97430.34;2354203;75;51310;-76
2023/01/17 04:47:16;;;;;;;;;;;;;;;17.78;67.22;97435.39;2328129;74;51080;-76
2023/01/17 04:50:18;;;;;;;;;;;;;;;17.77;67.21;97439.65;2354514;75;50629;-76
2023/01/17 04:53:19;;;;;;;;;;;;;;;17.77;67.22;97445.00;2354493;75;51538;-75
2023/01/17 04:56:21;;;;;;;;;;;;;;;17.74;67.30;97455.67;2378842;73;52190;-76
2023/01/17 04:59:23;;;;;;;;;;;;;;;17.74;67.37;97454.87;2328154;74;52378;-75
2023/01/17 05:02:24;;;;;;;;;;;;;;;17.73;67.39;97454.07;2354156;75;50152;-76
2023/01/17 05:05:26;;;;;;;;;;;;;;;17.74;67.40;97458.88;2370192;73;50392;-76
2023/01/17 05:08:27;;;;;;;;;;;;;;;17.71;67.50;97465.55;2378925;75;50348;-76
2023/01/17 05:11:29;;;;;;;;;;;;;;;17.70;67.44;97465.79;2355915;75;51699;-75
2023/01/17 05:14:33;;;;;;;;;;;;;;;17.74;67.33;97468.24;2354338;75;50627;-75
2023/01/17 05:17:34;;;;;;;;;;;;;;;17.76;67.22;97469.60;2379315;73;22813;-76
2023/01/17 05:20:35;;;;;;;;;;;;;;;17.77;67.20;97477.89;2355086;75;51366;-75
2023/01/17 05:23:39;;;;;;;;;;;;;;;17.75;67.20;97475.19;2355766;75;51633;-75
2023/01/17 05:26:41;;;;;;;;;;;;;;;17.75;67.26;97478.70;2379050;73;25724;-76
2023/01/17 05:29:43;;;;;;;;;;;;;;;17.75;67.30;97488.05;2378930;75;50721;-75
2023/01/17 05:32:46;;;;;;;;;;;;;;;17.74;67.30;97485.09;2354961;74;50674;-76
2023/01/17 05:35:48;;;;;;;;;;;;;;;17.77;67.25;97497.14;2360205;74;51722;-75
2023/01/17 05:38:49;;;;;;;;;;;;;;;17.76;67.29;97492.87;2379049;74;51561;-75
2023/01/17 05:41:51;;;;;;;;;;;;;;;17.74;67.36;97501.13;2378873;74;51565;-75
2023/01/17 05:44:53;;;;;;;;;;;;;;;17.71;67.48;97506.19;2347212;74;51543;-75
2023/01/17 05:47:54;;;;;;;;;;;;;;;17.73;67.43;97509.42;2341906;75;52566;-75
2023/01/17 05:50:56;;;;;;;;;;;;;;;17.75;67.33;97517.98;2372516;73;50377;-75
2023/01/17 05:53:58;;;;;;;;;;;;;;;17.75;67.32;97520.65;2342574;75;50653;-75
2023/01/17 05:56:59;;;;;;;;;;;;;;;17.74;67.34;97524.39;2366958;75;50700;-74
2023/01/17 06:00:01;;;;;;;;;;;;;;;17.75;67.36;97536.70;2346277;74;52661;-74
2023/01/17 06:03:02;;;;;;;;;;;;;;;17.74;66.40;97536.43;2375811;74;50294;-75
2023/01/17 06:06:04;;;;;;;;;;;;;;;17.82;66.09;97548.83;2369329;74;50626;-74
2023/01/17 06:09:06;;;;;;;;;;;;;;;17.82;65.96;97556.05;2379006;75;50271;-74
2023/01/17 06:12:07;;;;;;;;;;;;;;;17.74;66.15;97551.94;2378717;74;50287;-74
2023/01/17 06:15:09;;;;;;;;;;;;;;;17.70;66.45;97548.17;2378987;75;50788;-74
2023/01/17 06:18:11;;;;;;;;;;;;;;;17.72;66.37;97555.92;2354646;74;50327;-75
2023/01/17 06:21:13;;;;;;;;;;;;;;;17.71;66.40;97554.33;2379122;74;51503;-75
2023/01/17 06:24:14;;;;;;;;;;;;;;;17.82;66.10;97564.08;2354828;74;52356;-75
2023/01/17 06:27:16;;;;;;;;;;;;;;;17.97;65.68;97569.57;2375420;74;51321;-75
2023/01/17 06:30:18;;;;;;;;;;;;;;;17.99;65.56;97566.66;2348923;75;50990;-73
2023/01/17 06:33:19;;;;;;;;;;;;;;;18.02;65.42;97574.97;2350229;74;51513;-74
2023/01/17 06:36:23;;;;;;;;;;;;;;;18.06;65.34;97572.61;2342834;74;52379;-74
2023/01/17 06:39:24;;;;;;;;;;;;;;;18.03;65.33;97567.23;2354964;73;22312;-74
2023/01/17 06:42:26;;;;;;;;;;;;;;;18.02;65.38;97572.83;2378658;74;50688;-74
2023/01/17 06:45:28;;;;;;;;;;;;;;;17.98;65.54;97575.72;2378896;74;51645;-74
2023/01/17 06:48:30;;;;;;;;;;;;;;;17.89;65.79;97586.08;2356168;75;51727;-74
2023/01/17 06:51:31;;;;;;;;;;;;;;;17.82;65.97;97595.63;2377243;75;51568;-74
2023/01/17 06:54:33;;;;;;;;;;;;;;;17.79;66.10;97596.66;2372880;74;49920;-74
2023/01/17 06:57:35;;;;;;;;;;;;;;;17.86;66.04;97599.17;2372520;73;50197;-74
2023/01/17 07:00:36;;;;;;;;;;;;;;;17.91;66.20;97602.70;2346463;75;52366;-75
2023/01/17 07:03:38;;;;;;;;;;;;;;;17.98;66.09;97607.31;2375859;73;50738;-75
2023/01/17 07:06:39;;;;;;;;;;;;;;;18.04;65.77;97608.97;2424524;72;50255;-74
2023/01/17 07:09:41;;;;;;;;;;;;;;;18.06;65.60;97605.52;2392008;73;50773;-74
2023/01/17 07:12:42;;;;;;;;;;;;;;;17.99;65.69;97611.59;2362481;73;49468;-74
2023/01/17 07:15:44;;;;;;;;;;;;;;;17.99;65.64;97622.83;2424999;73;50618;-75
2023/01/17 07:18:46;;;;;;;;;;;;;;;17.99;65.56;97622.30;2425235;72;50666;-75
2023/01/17 07:21:49;;;;;;;;;;;;;;;17.95;65.68;97628.40;2417866;73;50854;-75
2023/01/17 07:24:52;;;;;;;;;;;;;;;17.87;65.98;97631.00;2360886;73;51050;-75
2023/01/17 07:27:56;;;;;;;;;;;;;;;17.80;66.18;97639.73;2360313;74;50705;-75
2023/01/17 07:30:57;;;;;;;;;;;;;;;17.86;66.11;97652.13;2383047;74;22327;-75
2023/01/17 07:33:59;;;;;;;;;;;;;;;18.00;65.74;97645.84;2378900;73;50255;-76
2023/01/17 07:37:01;;;;;;;;;;;;;;;17.98;65.79;97655.98;2338921;75;52593;-76
2023/01/17 07:40:03;;;;;;;;;;;;;;;18.00;65.68;97653.33;2357361;74;51490;-75
2023/01/17 07:43:23;;;;;;;;;;;;;;;17.97;65.79;97653.84;2379288;75;51556;-75
2023/01/17 07:46:14;;;;;;;;;;;;;;;17.84;66.35;97660.92;2375727;73;23045;-75
2023/01/17 07:49:14;;;;;;;;;;;;;;;17.76;66.72;97656.00;2383230;74;21756;-75
2023/01/17 07:52:16;;;;;;;;;;;;;;;17.72;66.91;97664.23;2379138;73;50598;-75
2023/01/17 07:55:18;;;;;;;;;;;;;;;17.75;67.01;97670.41;2354929;75;50778;-75
2023/01/17 07:58:19;;;;;;;;;;;;;;;17.78;66.78;97665.92;2355022;75;50407;-75
2023/01/17 08:01:21;;;;;;;;;;;;;;;17.82;66.56;97666.52;2328240;75;52548;-76
2023/01/17 08:04:24;;;;;;;;;;;;;;;17.88;66.45;97670.08;2390490;72;51585;-75
2023/01/17 08:07:26;;;;;;;;;;;;;;;17.91;66.37;97670.10;2381231;73;51503;-76
2023/01/17 08:10:27;;;;;;;;;;;;;;;17.97;66.22;97671.23;2354691;75;51551;-76
2023/01/17 08:13:29;;;;;;;;;;;;;;;17.96;66.23;97678.98;2327817;75;52461;-75
2023/01/17 08:16:30;;;;;;;;;;;;;;;17.92;66.42;97671.17;2379024;75;50310;-75
2023/01/17 08:19:32;;;;;;;;;;;;;;;17.96;66.22;97684.34;2379084;75;50282;-76
2023/01/17 08:22:33;;;;;;;;;;;;;;;18.00;66.14;97677.41;2354541;75;50449;-75
2023/01/17 08:25:35;;;;;;;;;;;;;;;18.03;66.10;97687.62;2354672;75;50369;-76
2023/01/17 08:28:37;;;;;;;;;;;;;;;18.03;65.91;97683.62;2379172;75;50530;-76
2023/01/17 08:31:38;;;;;;;;;;;;;;;17.94;66.10;97691.00;2379025;75;52292;-76
2023/01/17 08:34:40;;;;;;;;;;;;;;;17.86;66.22;97693.58;2358625;73;51517;-76
2023/01/17 08:37:41;;;;;;;;;;;;;;;17.82;66.36;97693.80;2362833;73;51220;-76
2023/01/17 08:40:43;;;;;;;;;;;;;;;17.80;66.33;97692.72;2424273;73;49770;-75
2023/01/17 08:43:46;;;;;;;;;;;;;;;17.85;66.19;97697.30;2423951;73;51573;-76
2023/01/17 08:46:48;;;;;;;;;;;;;;;17.90;65.96;97701.37;2424329;73;50439;-77
2023/01/17 08:49:51;;;;;;;;;;;;;;;17.88;66.00;97706.69;2363599;73;52433;-75
2023/01/17 08:52:54;;;;;;;;;;;;;;;17.83;66.06;97711.48;2390969;73;50450;-75
2023/01/17 08:56:00;;;;;;;;;;;;;;;17.78;66.24;97715.39;2423995;73;50423;-75
2023/01/17 08:59:01;;;;;;;;;;;;;;;17.73;66.31;97709.98;2424240;72;50033;-75
2023/01/17 09:02:13;;;;;;;;;;;;;;;17.71;66.46;97717.44;2390060;73;52564;-76
2023/01/17 09:05:07;;;;;;;;;;;;;;;17.69;66.52;97718.21;2376292;73;23111;-75
2023/01/17 09:08:08;;;;;;;;;;;;;;;17.63;66.69;97724.03;2378958;75;50413;-75
2023/01/17 09:11:10;;;;;;;;;;;;;;;17.63;66.66;97724.03;2354586;75;50414;-76
2023/01/17 09:14:12;;;;;;;;;;;;;;;17.68;66.43;97729.98;2355749;75;52437;-76
2023/01/17 09:17:14;;;;;;;;;;;;;;;17.74;66.23;97737.00;2354531;75;52093;-76
2023/01/17 09:20:15;;;;;;;;;;;;;;;17.83;65.91;97732.34;2379007;75;50890;-76
2023/01/17 09:23:17;;;;;;;;;;;;;;;18.01;65.40;97751.81;2354298;75;50064;-75
2023/01/17 09:26:23;;;;;;;;;;;;;;;18.04;65.23;97753.45;2328023;75;52339;-77
2023/01/17 09:29:24;;;;;;;;;;;;;;;18.03;65.18;97761.20;2354494;75;51528;-77
2023/01/17 09:32:26;;;;;;;;;;;;;;;18.04;65.15;97756.12;2354198;75;50379;-76
2023/01/17 09:35:27;;;;;;;;;;;;;;;18.01;65.25;97758.50;2378620;73;50709;-76
2023/01/17 09:38:29;;;;;;;;;;;;;;;18.05;65.02;97763.08;2355965;75;52489;-75
2023/01/17 09:41:32;;;;;;;;;;;;;;;18.02;65.14;97768.13;2378968;74;50404;-75
2023/01/17 09:44:41;;;;;;;;;;;;;;;17.96;65.22;97767.27;2380311;73;51466;-76
2023/01/17 09:47:44;;;;;;;;;;;;;;;17.88;65.50;97775.73;2381000;74;51523;-76
2023/01/17 09:50:53;;;;;;;;;;;;;;;17.80;65.76;97789.52;2356752;74;52457;-76
2023/01/17 09:53:55;;;;;;;;;;;;;;;17.78;65.82;97796.43;2379852;73;51472;-76
2023/01/17 09:56:58;;;;;;;;;;;;;;;17.85;65.85;97809.64;2381162;73;51495;-76
2023/01/17 10:00:04;;;;;;;;;;;;;;;17.93;65.77;97821.27;2359627;73;51563;-76
2023/01/17 10:03:07;;;;;;;;;;;;;;;17.93;65.78;97823.95;2380374;73;51393;-77
2023/01/17 10:06:14;;;;;;;;;;;;;;;17.89;65.86;97819.33;2416732;73;51525;-76
2023/01/17 10:09:26;;;;;;;;;;;;;;;17.89;65.91;97829.50;2424293;73;50268;-76
2023/01/17 10:12:29;;;;;;;;;;;;;;;17.81;66.10;97819.23;2423947;72;50273;-76
2023/01/17 10:15:49;;;;;;;;;;;;;;;17.85;66.10;97828.36;2388992;73;51273;-77
2023/01/17 10:18:55;;;;;;;;;;;;;;;17.89;66.06;97834.05;2424156;73;50815;-76
2023/01/17 10:22:15;;;;;;;;;;;;;;;17.92;65.86;97841.57;2424178;73;50550;-76
2023/01/17 10:25:24;;;;;;;;;;;;;;;17.84;65.98;97844.14;2424185;73;50328;-77
2023/01/17 10:28:27;;;;;;;;;;;;;;;17.81;66.03;97847.31;2389393;73;52388;-76
2023/01/17 10:31:30;;;;;;;;;;;;;;;17.86;65.80;97858.62;2422901;73;51419;-76
2023/01/17 10:34:48;;;;;;;;;;;;;;;17.90;65.64;97872.56;2404529;72;51557;-76
2023/01/17 10:37:50;;;;;;;;;;;;;;;17.86;65.62;97874.67;2340255;76;51586;-76
2023/01/17 10:40:54;;;;;;;;;;;;;;;17.80;65.72;97881.28;2344649;75;51890;-77
2023/01/17 10:43:57;;;;;;;;;;;;;;;17.76;65.84;97881.98;2340070;75;50918;-76
2023/01/17 10:47:03;;;;;;;;;;;;;;;17.71;65.94;97883.23;2340240;75;51567;-76
2023/01/17 10:50:05;;;;;;;;;;;;;;;17.66;66.06;97882.63;2340779;75;50300;-76
2023/01/17 10:53:10;;;;;;;;;;;;;;;17.64;66.16;97889.55;2351998;73;49289;-76
2023/01/17 10:56:13;;;;;;;;;;;;;;;17.63;66.23;97891.95;2431235;73;51572;-75
2023/01/17 10:59:25;;;;;;;;;;;;;;;17.61;66.19;97902.60;2415683;73;50350;-75
2023/01/17 11:02:31;;;;;;;;;;;;;;;17.63;66.06;97899.16;2412701;73;51492;-75
2023/01/17 11:05:32;;;;;;;;;;;;;;;17.71;65.79;97895.27;2369274;73;51308;-74
2023/01/17 11:08:35;;;;;;;;;;;;;;;17.81;65.47;97907.49;2379921;74;52297;-75
2023/01/17 11:11:39;;;;;;;;;;;;;;;17.96;64.98;97913.60;2364872;74;50754;-76
2023/01/17 11:14:40;;;;;;;;;;;;;;;18.02;64.67;97920.10;2377902;74;50561;-75
2023/01/17 11:17:43;;;;;;;;;;;;;;;18.08;64.46;97920.17;2355932;75;49650;-75
2023/01/17 11:20:45;;;;;;;;;;;;;;;18.07;64.45;97918.03;2378776;73;50396;-75
2023/01/17 11:23:47;;;;;;;;;;;;;;;18.08;64.38;97916.97;2378621;74;50345;-75
2023/01/17 11:26:48;;;;;;;;;;;;;;;18.05;64.42;97922.81;2378882;75;51518;-75
2023/01/17 11:29:52;;;;;;;;;;;;;;;17.98;64.55;97923.00;2358238;75;49521;-77
2023/01/17 11:32:55;;;;;;;;;;;;;;;17.96;64.61;97932.33;2379488;73;50714;-77
2023/01/17 11:36:01;;;;;;;;;;;;;;;17.90;64.84;97931.42;2371495;73;50742;-77
2023/01/17 11:39:04;;;;;;;;;;;;;;;17.80;65.14;97936.61;2380927;73;50836;-78
2023/01/17 11:42:06;;;;;;;;;;;;;;;17.82;65.16;97947.88;2355418;73;50345;-77
2023/01/17 11:45:21;;;;;;;;;;;;;;;17.90;65.00;97942.13;2380571;73;50705;-76
2023/01/17 11:48:23;;;;;;;;;;;;;;;17.93;65.08;97947.51;2377763;73;51484;-76
2023/01/17 11:51:26;;;;;;;;;;;;;;;18.00;65.01;97958.86;2379135;75;51541;-76
2023/01/17 11:54:28;;;;;;;;;;;;;;;18.01;65.01;97961.30;2356078;75;51204;-77
2023/01/17 11:57:31;;;;;;;;;;;;;;;17.99;65.13;97971.97;2379022;74;50810;-77
2023/01/17 12:00:36;;;;;;;;;;;;;;;17.93;65.39;97971.08;2378992;75;50707;-76
2023/01/17 12:03:39;;;;;;;;;;;;;;;17.91;65.43;97965.16;2373434;73;50211;-74
2023/01/17 12:06:58;;;;;;;;;;;;;;;17.90;65.52;97969.41;2356212;75;51312;-74
2023/01/17 12:10:04;;;;;;;;;;;;;;;17.84;65.70;97964.50;2379017;74;51522;-76
2023/01/17 12:16:32;;;;;;;;;;;;;;;17.80;65.89;97962.02;2379483;75;22414;-75
2023/01/17 12:19:50;;;;;;;;;;;;;;;17.83;65.79;97966.91;2358001;75;52628;-75
2023/01/17 12:23:12;;;;;;;;;;;;;;;17.90;65.58;97971.55;2378643;74;50858;-75
2023/01/17 12:26:28;;;;;;;;;;;;;;;17.97;65.40;97972.20;2378639;74;50744;-75
2023/01/17 12:29:41;;;;;;;;;;;;;;;17.99;65.31;97978.12;2378742;73;50385;-75
2023/01/17 12:32:50;;;;;;;;;;;;;;;17.97;65.35;97984.23;2356529;73;51776;-76
2023/01/17 12:35:53;;;;;;;;;;;;;;;17.94;65.49;97977.23;2408874;73;50710;-76
2023/01/17 12:38:55;;;;;;;;;;;;;;;17.90;65.59;97984.11;2423441;73;50718;-76
2023/01/17 12:42:01;;;;;;;;;;;;;;;17.86;65.63;97987.02;2423915;72;50034;-76
2023/01/17 12:45:04;;;;;;;;;;;;;;;17.83;65.73;97994.47;2357452;74;51730;-75
2023/01/17 12:48:06;;;;;;;;;;;;;;;17.78;65.88;97996.22;2381034;73;51561;-75
2023/01/17 12:51:09;;;;;;;;;;;;;;;17.77;65.93;98008.75;2358134;74;51528;-76
2023/01/17 12:54:12;;;;;;;;;;;;;;;17.77;65.96;98011.96;2380977;73;51520;-77
2023/01/17 12:57:18;;;;;;;;;;;;;;;17.82;65.86;98000.84;2381068;74;50331;-75
2023/01/17 13:00:21;;;;;;;;;;;;;;;17.95;65.51;98009.61;2379312;73;50713;-76
2023/01/17 13:03:31;;;;;;;;;;;;;;;17.95;65.42;98012.28;2357345;74;50096;-74
2023/01/17 13:06:37;;;;;;;;;;;;;;;17.95;65.30;98015.77;2394039;73;50307;-75
2023/01/17 13:09:43;;;;;;;;;;;;;;;17.93;65.36;98014.39;2354851;75;52619;-75
2023/01/17 13:12:45;;;;;;;;;;;;;;;17.93;65.26;98019.23;2378730;75;51545;-75
2023/01/17 13:15:48;;;;;;;;;;;;;;;17.95;65.08;98017.11;2379028;75;51545;-76
2023/01/17 13:18:50;;;;;;;;;;;;;;;17.93;65.13;98025.09;2378971;75;50470;-76
2023/01/17 13:21:51;;;;;;;;;;;;;;;17.90;65.17;98029.06;2328249;75;50982;-75
2023/01/17 13:25:13;;;;;;;;;;;;;;;17.82;65.36;98035.62;2378748;73;50256;-76
2023/01/17 13:28:19;;;;;;;;;;;;;;;17.81;65.41;98035.88;2381013;74;50265;-76
2023/01/17 13:31:22;;;;;;;;;;;;;;;17.83;65.36;98040.47;2380750;74;50815;-76
2023/01/17 13:34:31;;;;;;;;;;;;;;;18.01;64.82;98041.57;2367013;73;51809;-76
2023/01/17 13:37:50;;;;;;;;;;;;;;;18.12;64.50;98052.44;2378995;74;51522;-75
2023/01/17 13:41:00;;;;;;;;;;;;;;;18.12;64.48;98055.92;2379453;73;50676;-76
2023/01/17 13:47:23;;;;;;;;;;;;;;;18.08;64.69;98069.48;2379971;75;22408;-76
2023/01/17 13:50:42;;;;;;;;;;;;;;;18.05;64.77;98071.31;2379912;75;51648;-76
2023/01/17 13:53:45;;;;;;;;;;;;;;;18.03;64.81;98074.25;2379606;74;51484;-76
2023/01/17 13:56:46;;;;;;;;;;;;;;;18.01;64.93;98087.06;2379898;74;51538;-77
2023/01/17 13:59:48;;;;;;;;;;;;;;;17.99;64.98;98093.70;2328832;75;52332;-76
2023/01/17 14:02:50;;;;;;;;;;;;;;;17.91;65.19;98088.75;2379028;75;51477;-76
2023/01/17 14:05:55;;;;;;;;;;;;;;;17.84;65.44;98088.89;2394597;72;49965;-76
2023/01/17 14:09:04;;;;;;;;;;;;;;;17.84;65.48;98099.59;2379523;74;50343;-76
2023/01/17 14:12:07;;;;;;;;;;;;;;;17.91;65.38;98100.79;2356545;75;52611;-76
2023/01/17 14:15:11;;;;;;;;;;;;;;;18.01;65.10;98107.12;2376469;74;51513;-75
2023/01/17 14:18:29;;;;;;;;;;;;;;;18.02;65.02;98115.42;2378365;74;51704;-76
2023/01/17 14:21:31;;;;;;;;;;;;;;;18.03;64.96;98117.06;2379932;73;51565;-76
2023/01/17 14:24:32;;;;;;;;;;;;;;;18.01;64.94;98127.19;2329071;75;52732;-76
2023/01/17 14:27:34;;;;;;;;;;;;;;;18.02;64.92;98131.48;2380086;74;50654;-76
2023/01/17 14:30:36;;;;;;;;;;;;;;;18.00;65.00;98143.47;2379721;74;51468;-76
2023/01/17 14:33:38;;;;;;;;;;;;;;;17.94;65.13;98142.58;2380539;73;50815;-76
2023/01/17 14:36:40;;;;;;;;;;;;;;;17.90;65.29;98150.78;2340451;75;52441;-77
2023/01/17 14:39:46;;;;;;;;;;;;;;;17.84;65.42;98150.41;2381527;74;51506;-76
2023/01/17 14:42:50;;;;;;;;;;;;;;;17.84;65.47;98152.55;2378420;73;50860;-75
2023/01/17 14:45:58;;;;;;;;;;;;;;;17.94;65.29;98161.83;2379667;74;50723;-76
2023/01/17 14:49:05;;;;;;;;;;;;;;;18.04;64.92;98160.69;2357224;75;51302;-77
2023/01/17 14:52:09;;;;;;;;;;;;;;;18.10;64.72;98168.27;2377426;73;50463;-76
2023/01/17 14:55:17;;;;;;;;;;;;;;;18.12;64.61;98159.48;2380157;73;50707;-77
2023/01/17 14:58:21;;;;;;;;;;;;;;;18.09;64.68;98169.34;2379729;74;51514;-77
2023/01/17 15:01:22;;;;;;;;;;;;;;;18.11;64.65;98171.22;2356281;75;52648;-76
2023/01/17 15:04:25;;;;;;;;;;;;;;;18.05;64.74;98168.45;2391665;73;50706;-77
2023/01/17 15:07:27;;;;;;;;;;;;;;;18.06;64.72;98180.80;2381740;73;50132;-77
2023/01/17 15:10:32;;;;;;;;;;;;;;;18.01;64.86;98179.37;2379635;75;51608;-76
2023/01/17 15:13:35;;;;;;;;;;;;;;;17.95;65.01;98177.63;2356517;75;52469;-76
2023/01/17 15:16:37;;;;;;;;;;;;;;;17.88;65.20;98181.50;2374741;74;51480;-75
2023/01/17 15:19:42;;;;;;;;;;;;;;;17.86;65.26;98189.78;2355507;75;51598;-75
2023/01/17 15:22:44;;;;;;;;;;;;;;;17.90;65.20;98189.57;2379554;74;50333;-75
2023/01/17 15:25:49;;;;;;;;;;;;;;;17.94;65.09;98193.41;2356512;74;52363;-76
2023/01/17 15:28:51;;;;;;;;;;;;;;;18.03;64.82;98197.34;2379419;74;51547;-76
2023/01/17 15:31:59;;;;;;;;;;;;;;;18.09;64.67;98194.23;2379341;74;50790;-76
2023/01/17 15:35:01;;;;;;;;;;;;;;;18.11;64.51;98196.14;2385905;73;51522;-76
2023/01/17 15:38:04;;;;;;;;;;;;;;;18.13;64.49;98194.55;2390621;73;49659;-75
2023/01/17 15:41:07;;;;;;;;;;;;;;;18.13;64.43;98202.58;2390984;72;51688;-75
2023/01/17 15:44:11;;;;;;;;;;;;;;;18.13;64.37;98202.05;2423050;73;50569;-76
2023/01/17 15:47:32;;;;;;;;;;;;;;;18.02;64.66;98204.25;2422033;72;50423;-75
2023/01/17 15:50:37;;;;;;;;;;;;;;;17.97;64.82;98214.33;2424786;73;51460;-75
2023/01/17 15:53:39;;;;;;;;;;;;;;;17.91;64.91;98204.59;2424967;72;22325;-75
2023/01/17 15:56:44;;;;;;;;;;;;;;;17.88;65.07;98205.07;2424815;72;50311;-74
2023/01/17 16:00:04;;;;;;;;;;;;;;;17.89;65.05;98212.03;2390984;72;22326;-75
2023/01/17 16:03:21;;;;;;;;;;;;;;;17.97;64.84;98214.86;2412646;73;22317;-75
2023/01/17 16:06:30;;;;;;;;;;;;;;;18.01;64.80;98224.86;2406618;72;51566;-75
2023/01/17 16:09:37;;;;;;;;;;;;;;;18.02;64.67;98224.32;2411645;72;51537;-75
2023/01/17 16:12:38;;;;;;;;;;;;;;;18.04;64.62;98223.03;2423904;73;50430;-75
2023/01/17 16:15:40;;;;;;;;;;;;;;;18.04;64.63;98218.22;2363350;73;51240;-75
2023/01/17 16:18:41;;;;;;;;;;;;;;;18.02;64.61;98225.13;2424633;72;50652;-76
2023/01/17 16:21:45;;;;;;;;;;;;;;;17.99;64.71;98226.95;2424620;73;50212;-77
2023/01/17 16:24:46;;;;;;;;;;;;;;;17.94;64.83;98225.52;2424647;73;22356;-75
2023/01/17 16:27:48;;;;;;;;;;;;;;;17.92;64.86;98225.46;2363210;73;52556;-76
2023/01/17 16:30:52;;;;;;;;;;;;;;;17.89;64.95;98233.44;2390389;73;50772;-75
2023/01/17 16:33:53;;;;;;;;;;;;;;;17.91;64.95;98235.89;2365015;74;22410;-75
2023/01/17 16:36:54;;;;;;;;;;;;;;;17.99;64.66;98230.16;2393775;73;50899;-76
2023/01/17 16:39:56;;;;;;;;;;;;;;;18.09;64.37;98237.05;2405016;73;51438;-74
2023/01/17 16:42:58;;;;;;;;;;;;;;;18.09;64.28;98238.91;2394109;73;51417;-74
2023/01/17 16:45:59;;;;;;;;;;;;;;;18.04;64.41;98245.78;2424732;73;51466;-76
2023/01/17 16:49:01;;;;;;;;;;;;;;;18.01;64.41;98239.57;2424368;73;50252;-76
2023/01/17 16:52:03;;;;;;;;;;;;;;;17.97;64.45;98235.73;2362531;73;51667;-75
2023/01/17 16:55:05;;;;;;;;;;;;;;;17.96;64.46;98247.50;2390455;73;50065;-75
2023/01/17 16:58:07;;;;;;;;;;;;;;;17.92;64.60;98253.02;2424388;72;51615;-75
2023/01/17 17:01:09;;;;;;;;;;;;;;;17.86;64.75;98249.97;2425341;72;51475;-75
2023/01/17 17:04:11;;;;;;;;;;;;;;;17.81;64.91;98249.86;2369449;73;49725;-76
2023/01/17 17:07:13;;;;;;;;;;;;;;;17.76;65.07;98249.73;2384377;73;50689;-76
2023/01/17 17:10:15;;;;;;;;;;;;;;;17.76;65.02;98239.84;2378989;75;51416;-76
2023/01/17 17:13:17;;;;;;;;;;;;;;;17.82;64.80;98242.92;2378709;75;50407;-77
2023/01/17 17:16:20;;;;;;;;;;;;;;;17.95;64.44;98253.08;2378864;75;50337;-75
2023/01/17 17:19:21;;;;;;;;;;;;;;;18.08;64.03;98254.66;2327988;75;52450;-76
2023/01/17 17:22:23;;;;;;;;;;;;;;;18.14;63.79;98260.42;2354334;74;51342;-76